Airport ID:KEDC
Update Time (UTC):17 OCT 19 06:14
Wind Speed (Knots):8
Wind Direction (Magnetic):330
Temperature (°C):12
Dew Point (°C):5
Humidity (%):65
Altimeter (inHg):30.11
Density Altitude (Feet):
Visibility (Miles):10
Clouds (Hundreds of feet):CLR
Present Weather:NO PRECIPITATION
METAR:METAR KEDC 170610Z AUTO 33007KT 10SM CLR 12/05 A3011 RMK AO2

The data displayed is for advisory purposes only and is not to be used for flight planning or operations.

This page is not automatically refreshed. Reload the page to see current data.